createdAt,value
2023-01-23T00:02:19.304Z,29.75
2023-01-23T00:04:46.102Z,31.70
2023-01-23T00:07:12.820Z,32.35
2023-01-23T00:09:39.591Z,28.05
2023-01-23T00:12:06.436Z,24.98
2023-01-23T00:14:33.187Z,26.33
2023-01-23T00:16:59.903Z,28.15
2023-01-23T00:19:26.616Z,32.15
2023-01-23T00:21:53.292Z,27.92
2023-01-23T00:24:20.022Z,28.10
2023-01-23T00:26:46.692Z,32.13
2023-01-23T00:29:15.762Z,27.90
2023-01-23T00:31:42.589Z,37.35
2023-01-23T00:34:12.007Z,28.20
2023-01-23T00:36:40.519Z,34.95
2023-01-23T00:39:09.432Z,28.65
2023-01-23T00:41:36.107Z,22.73
2023-01-23T00:44:02.994Z,24.88
2023-01-23T00:46:29.834Z,29.05
2023-01-23T00:48:56.594Z,35.85
2023-01-23T00:51:23.629Z,30.67
2023-01-23T00:53:50.377Z,31.98
2023-01-23T00:56:17.119Z,32.33
2023-01-23T00:58:45.209Z,31.80
2023-01-23T01:01:12.315Z,41.97
2023-01-23T01:03:39.086Z,34.78
2023-01-23T01:06:05.956Z,34.38
2023-01-23T01:08:32.719Z,36.63
2023-01-23T01:10:59.383Z,38.03
2023-01-23T01:13:26.235Z,37.38
2023-01-23T01:15:53.062Z,33.75
2023-01-23T01:18:19.996Z,37.08
2023-01-23T01:20:46.971Z,34.72
2023-01-23T01:23:13.745Z,33.53
2023-01-23T01:25:40.516Z,40.35
2023-01-23T01:28:07.223Z,33.08
2023-01-23T01:30:33.886Z,40.17
2023-01-23T01:33:00.550Z,38.67
2023-01-23T01:35:27.272Z,35.55
2023-01-23T01:37:53.960Z,35.78
2023-01-23T01:40:23.080Z,35.40
2023-01-23T01:42:58.422Z,30.65
2023-01-23T01:46:02.439Z,38.60
2023-01-23T01:49:04.449Z,30.38
2023-01-23T01:51:58.913Z,32.78
2023-01-23T01:54:54.265Z,35.85
2023-01-23T01:57:26.390Z,29.48
2023-01-23T01:59:57.498Z,29.73
2023-01-23T02:02:27.914Z,22.40
2023-01-23T02:05:05.133Z,20.25
2023-01-23T02:07:40.059Z,20.88
2023-01-23T02:10:07.561Z,18.23
2023-01-23T02:12:35.258Z,20.85
2023-01-23T02:15:03.140Z,19.65
2023-01-23T02:17:30.875Z,19.85
2023-01-23T02:20:14.657Z,19.02
2023-01-23T02:22:47.855Z,18.10
2023-01-23T02:25:25.870Z,26.70
2023-01-23T02:27:52.652Z,28.58
2023-01-23T02:30:20.884Z,25.10
2023-01-23T02:32:47.823Z,26.27
2023-01-23T02:35:32.962Z,33.78
2023-01-23T02:38:00.792Z,28.67
2023-01-23T02:40:36.585Z,31.75
2023-01-23T02:43:07.526Z,30.13
2023-01-23T02:45:34.281Z,29.25
2023-01-23T02:48:01.628Z,32.78
2023-01-23T02:50:28.950Z,33.35
2023-01-23T02:52:57.876Z,30.35
2023-01-23T02:55:26.532Z,27.95
2023-01-23T02:57:53.402Z,32.25
2023-01-23T03:00:20.896Z,29.90
2023-01-23T03:02:48.853Z,33.72
2023-01-23T03:05:15.910Z,30.75
2023-01-23T03:07:43.015Z,30.30
2023-01-23T03:10:10.716Z,30.98
2023-01-23T03:12:43.355Z,29.98
2023-01-23T03:15:10.646Z,32.40
2023-01-23T03:17:37.422Z,36.13
2023-01-23T03:20:05.987Z,34.58
2023-01-23T03:22:32.664Z,32.00
2023-01-23T03:24:59.402Z,29.52
2023-01-23T03:27:26.063Z,30.83
2023-01-23T03:30:11.646Z,36.08
2023-01-23T03:32:38.725Z,25.05
2023-01-23T03:35:06.829Z,25.70
2023-01-23T03:37:33.485Z,24.33
2023-01-23T03:40:19.328Z,18.35
2023-01-23T03:42:46.196Z,19.10
2023-01-23T03:45:12.997Z,19.40
2023-01-23T03:47:39.783Z,12.80
2023-01-23T03:50:07.665Z,14.80
2023-01-23T03:52:34.866Z,13.68
2023-01-23T03:55:01.559Z,18.33
2023-01-23T03:57:28.308Z,11.73
2023-01-23T03:59:55.225Z,13.60
2023-01-23T04:02:21.918Z,16.42
2023-01-23T04:04:48.622Z,16.50
2023-01-23T04:07:15.304Z,14.35
2023-01-23T04:09:41.999Z,15.95
2023-01-23T04:12:08.763Z,15.68
2023-01-23T04:14:37.680Z,16.10
2023-01-23T04:17:05.401Z,18.05
2023-01-23T04:19:32.363Z,11.70
2023-01-23T04:21:59.085Z,14.60
2023-01-23T04:24:25.834Z,17.30
2023-01-23T04:26:52.783Z,13.77
2023-01-23T04:29:19.638Z,13.98
2023-01-23T04:31:46.448Z,12.40
2023-01-23T04:34:13.206Z,18.30
2023-01-23T04:36:39.937Z,14.43
2023-01-23T04:39:06.675Z,12.70
2023-01-23T04:41:33.421Z,15.45
2023-01-23T04:44:19.905Z,13.27
2023-01-23T04:46:50.356Z,12.65
2023-01-23T04:49:18.584Z,13.20
2023-01-23T04:51:47.935Z,14.93
2023-01-23T04:54:14.905Z,15.48
2023-01-23T04:56:41.679Z,17.90
2023-01-23T04:59:08.452Z,17.15
2023-01-23T05:01:35.258Z,10.60
2023-01-23T05:04:02.008Z,14.20
2023-01-23T05:06:28.752Z,17.90
2023-01-23T05:08:55.425Z,12.63
2023-01-23T05:11:22.172Z,14.52
2023-01-23T05:13:49.035Z,19.30
2023-01-23T05:16:15.748Z,13.85
2023-01-23T05:18:42.543Z,12.48
2023-01-23T05:21:09.223Z,18.98
2023-01-23T05:23:35.944Z,13.05
2023-01-23T05:26:02.690Z,15.95
2023-01-23T05:28:29.359Z,11.23
2023-01-23T05:30:57.027Z,12.63
2023-01-23T05:33:23.796Z,11.90
2023-01-23T05:35:50.524Z,13.25
2023-01-23T05:38:17.200Z,13.98
2023-01-23T05:40:43.900Z,18.05
2023-01-23T05:43:14.552Z,13.60
2023-01-23T05:45:41.289Z,15.40
2023-01-23T05:48:08.090Z,15.82
2023-01-23T05:50:34.778Z,10.50
2023-01-23T05:53:01.480Z,18.60
2023-01-23T05:55:28.175Z,12.93
2023-01-23T05:57:55.047Z,7.80
2023-01-23T06:00:22.091Z,10.27
2023-01-23T06:02:49.030Z,11.15
2023-01-23T06:05:15.873Z,10.98
2023-01-23T06:07:43.053Z,9.52
2023-01-23T06:10:10.214Z,15.80
2023-01-23T06:12:36.917Z,10.68
2023-01-23T06:15:04.183Z,13.52
2023-01-23T06:17:30.924Z,13.95
2023-01-23T06:19:58.726Z,11.32
2023-01-23T06:22:25.452Z,12.82
2023-01-23T06:24:52.681Z,14.98
2023-01-23T06:27:19.516Z,15.77
2023-01-23T06:29:46.203Z,15.20
2023-01-23T06:32:13.032Z,18.27
2023-01-23T06:34:39.941Z,19.20
2023-01-23T06:37:06.658Z,19.25
2023-01-23T06:39:34.221Z,18.67
2023-01-23T06:42:01.023Z,19.20
2023-01-23T06:44:27.819Z,13.63
2023-01-23T06:46:54.525Z,17.52
2023-01-23T06:49:21.283Z,18.23
2023-01-23T06:51:48.212Z,21.60
2023-01-23T06:54:14.949Z,24.80
2023-01-23T06:56:41.638Z,20.13
2023-01-23T06:59:08.365Z,25.98
2023-01-23T07:01:35.127Z,23.40
2023-01-23T07:04:01.989Z,24.15
2023-01-23T07:06:29.954Z,22.73
2023-01-23T07:08:56.643Z,26.25
2023-01-23T07:11:24.406Z,26.27
2023-01-23T07:13:51.153Z,23.52
2023-01-23T07:16:17.963Z,22.50
2023-01-23T07:18:44.703Z,20.80
2023-01-23T07:21:11.400Z,31.02
2023-01-23T07:23:38.125Z,19.83
2023-01-23T07:26:09.423Z,26.27
2023-01-23T07:28:37.135Z,27.17
2023-01-23T07:31:04.171Z,23.60
2023-01-23T07:33:31.068Z,25.35
2023-01-23T07:35:57.752Z,21.50
2023-01-23T07:38:25.848Z,28.73
2023-01-23T07:40:52.828Z,26.20
2023-01-23T07:43:19.626Z,25.23
2023-01-23T07:45:46.422Z,20.38
2023-01-23T07:48:13.207Z,27.20
2023-01-23T07:50:40.050Z,26.73
2023-01-23T07:53:07.221Z,26.40
2023-01-23T07:55:34.148Z,23.20
2023-01-23T07:58:01.014Z,28.85
2023-01-23T08:00:29.779Z,21.35
2023-01-23T08:02:56.989Z,22.65
2023-01-23T08:05:23.867Z,20.70
2023-01-23T08:07:53.768Z,20.08
2023-01-23T08:10:24.615Z,18.70
2023-01-23T08:12:51.275Z,19.73
2023-01-23T08:15:18.096Z,21.25
2023-01-23T08:17:44.796Z,24.58
2023-01-23T08:20:11.732Z,18.88
2023-01-23T08:22:40.850Z,25.33
2023-01-23T08:25:09.710Z,26.33
2023-01-23T08:27:37.045Z,22.55
2023-01-23T08:30:05.296Z,20.30
2023-01-23T08:32:32.046Z,21.23
2023-01-23T08:34:59.703Z,23.73
2023-01-23T08:37:26.356Z,21.88
2023-01-23T08:39:53.147Z,20.92
2023-01-23T08:42:19.805Z,21.65
2023-01-23T08:44:46.521Z,23.33
2023-01-23T08:47:13.199Z,28.40
2023-01-23T08:49:39.852Z,25.95
2023-01-23T08:52:06.520Z,26.65
2023-01-23T08:54:33.368Z,24.73
2023-01-23T08:57:00.043Z,21.02
2023-01-23T08:59:27.123Z,22.13
2023-01-23T09:01:53.850Z,31.30
2023-01-23T09:04:20.595Z,25.65
2023-01-23T09:06:47.377Z,21.98
2023-01-23T09:09:14.208Z,21.08
2023-01-23T09:11:40.869Z,23.02
2023-01-23T09:14:07.730Z,21.45
2023-01-23T09:16:34.512Z,28.98
2023-01-23T09:19:01.234Z,27.88
2023-01-23T09:21:27.988Z,29.50
2023-01-23T09:23:54.718Z,29.23
2023-01-23T09:26:21.383Z,26.27
2023-01-23T09:28:48.216Z,30.65
2023-01-23T09:31:14.965Z,26.52
2023-01-23T09:33:41.749Z,25.80
2023-01-23T09:36:08.994Z,26.77
2023-01-23T09:38:35.792Z,29.25
2023-01-23T09:41:09.508Z,24.52
2023-01-23T09:43:44.108Z,30.50
2023-01-23T09:46:11.013Z,32.13
2023-01-23T09:48:48.126Z,30.33
2023-01-23T09:51:33.702Z,29.30
2023-01-23T09:54:08.267Z,22.92
2023-01-23T09:56:43.607Z,27.15
2023-01-23T09:59:50.249Z,26.17
2023-01-23T10:02:22.068Z,33.53
2023-01-23T10:04:49.951Z,26.83
2023-01-23T10:07:19.722Z,28.88
2023-01-23T10:10:15.177Z,30.45
2023-01-23T10:12:57.122Z,26.08
2023-01-23T10:15:57.725Z,28.08
2023-01-23T10:18:35.780Z,26.75
2023-01-23T10:21:21.132Z,28.25
2023-01-23T10:24:15.824Z,33.92
2023-01-23T10:26:43.710Z,32.75
2023-01-23T10:29:34.625Z,45.33
2023-01-23T10:32:02.348Z,42.40
2023-01-23T10:35:12.484Z,44.47
2023-01-23T10:37:52.644Z,39.17
2023-01-23T10:40:39.683Z,46.08
2023-01-23T10:43:17.206Z,39.35
2023-01-23T10:45:45.267Z,42.90
2023-01-23T10:48:53.240Z,56.35
2023-01-23T10:51:32.986Z,48.22
2023-01-23T10:54:30.242Z,44.53
2023-01-23T10:56:58.269Z,46.55
2023-01-23T10:59:41.502Z,47.30
2023-01-23T11:02:14.607Z,46.45
2023-01-23T11:04:46.550Z,38.47
2023-01-23T11:07:30.187Z,46.38
2023-01-23T11:09:57.901Z,50.10
2023-01-23T11:12:28.876Z,43.25
2023-01-23T11:15:32.004Z,47.08
2023-01-23T11:18:00.179Z,42.72
2023-01-23T11:20:38.362Z,40.25
2023-01-23T11:23:17.816Z,54.47
2023-01-23T11:25:45.313Z,44.05
2023-01-23T11:28:24.871Z,39.08
2023-01-23T11:31:11.533Z,35.17
2023-01-23T11:34:01.492Z,49.35
2023-01-23T11:36:45.607Z,42.50
2023-01-23T11:39:18.768Z,48.28
2023-01-23T11:41:46.046Z,47.60
2023-01-23T11:44:22.712Z,42.00
2023-01-23T11:46:55.600Z,37.88
2023-01-23T11:49:22.237Z,44.60
2023-01-23T11:51:48.939Z,46.83
2023-01-23T11:54:44.796Z,41.88
2023-01-23T11:57:21.324Z,38.40
2023-01-23T11:59:53.890Z,42.40
2023-01-23T12:02:41.847Z,33.67
2023-01-23T12:05:08.629Z,42.53
2023-01-23T12:08:07.153Z,36.08
2023-01-23T12:10:44.339Z,33.60
2023-01-23T12:13:25.524Z,35.58
2023-01-23T12:16:04.140Z,32.70
2023-01-23T12:18:55.125Z,33.78
2023-01-23T12:21:34.002Z,32.97
2023-01-23T12:24:05.659Z,37.28
2023-01-23T12:26:32.353Z,36.10
2023-01-23T12:29:18.616Z,38.25
2023-01-23T12:32:30.773Z,36.22
2023-01-23T12:35:29.570Z,36.90
2023-01-23T12:38:21.156Z,37.25
2023-01-23T12:40:53.027Z,38.15
2023-01-23T12:43:45.681Z,48.53
2023-01-23T12:46:16.698Z,44.78
2023-01-23T12:48:53.780Z,38.20
2023-01-23T12:51:22.811Z,49.15
2023-01-23T12:53:52.812Z,45.58
2023-01-23T12:56:33.927Z,44.17
2023-01-23T12:59:11.205Z,44.38
2023-01-23T13:02:13.289Z,43.40
2023-01-23T13:05:15.992Z,36.78
2023-01-23T13:08:05.563Z,46.17
2023-01-23T13:11:15.438Z,42.50
2023-01-23T13:13:42.164Z,33.28
2023-01-23T13:16:14.151Z,32.80
2023-01-23T13:19:00.486Z,32.05
2023-01-23T13:21:45.675Z,35.35
2023-01-23T13:24:43.930Z,31.65
2023-01-23T13:27:51.187Z,30.77
2023-01-23T13:30:26.821Z,32.47
2023-01-23T13:32:55.111Z,34.53
2023-01-23T13:35:42.226Z,30.20
2023-01-23T13:38:30.265Z,28.73
2023-01-23T13:41:05.561Z,27.05
2023-01-23T13:43:52.726Z,25.40
2023-01-23T14:24:23.340Z,12.88
2023-01-23T14:27:02.436Z,14.57
2023-01-23T14:29:31.280Z,10.68
2023-01-23T14:31:58.046Z,10.88
2023-01-23T14:34:25.427Z,12.45
2023-01-23T14:36:52.219Z,15.30
2023-01-23T14:39:23.476Z,12.65
2023-01-23T14:41:50.503Z,13.23
2023-01-23T14:44:24.394Z,11.93
2023-01-23T14:46:54.877Z,13.93
2023-01-23T14:49:27.370Z,20.88
2023-01-23T14:52:05.165Z,11.63
2023-01-23T14:54:33.380Z,14.07
2023-01-23T14:57:04.699Z,16.85
2023-01-23T14:59:36.109Z,22.83
2023-01-23T15:02:13.069Z,11.85
2023-01-23T15:05:11.991Z,10.68
2023-01-23T15:08:05.990Z,13.95
2023-01-23T15:10:41.179Z,10.98
2023-01-23T15:13:25.074Z,14.68
2023-01-23T15:16:16.074Z,12.73
2023-01-23T15:19:00.135Z,16.00
2023-01-23T15:21:35.271Z,11.65
2023-01-23T15:24:06.077Z,37.70
2023-01-23T15:26:34.656Z,17.02
2023-01-23T15:29:03.917Z,11.95
2023-01-23T15:31:58.616Z,14.27
2023-01-23T15:37:09.924Z,12.55
2023-01-23T15:40:02.044Z,12.80
2023-01-23T15:42:31.021Z,13.05
2023-01-23T15:45:01.796Z,12.15
2023-01-23T15:47:33.010Z,15.68
2023-01-23T15:50:03.078Z,15.13
2023-01-23T15:52:47.145Z,15.45
2023-01-23T15:55:14.046Z,15.40
2023-01-23T15:57:43.108Z,17.73
2023-01-23T16:00:20.759Z,25.92
2023-01-23T16:02:56.699Z,16.25
2023-01-23T16:05:25.626Z,14.40
2023-01-23T16:07:52.534Z,11.10
2023-01-23T16:10:26.261Z,13.20
2023-01-23T16:12:54.045Z,16.75
2023-01-23T16:15:22.975Z,24.98
2023-01-23T16:17:50.078Z,14.68
2023-01-23T16:20:18.771Z,11.68
2023-01-23T16:22:46.562Z,11.32
2023-01-23T16:25:43.060Z,15.38
2023-01-23T16:28:15.168Z,13.02
2023-01-23T16:30:42.091Z,17.40
2023-01-23T16:33:09.381Z,11.73
2023-01-23T16:35:36.236Z,14.63
2023-01-23T16:38:03.089Z,14.30
2023-01-23T16:40:33.032Z,13.63
2023-01-23T16:43:02.639Z,14.48
2023-01-23T16:45:30.643Z,14.00
2023-01-23T16:47:57.453Z,11.15
2023-01-23T16:50:33.697Z,14.48
2023-01-23T16:53:02.561Z,13.38
2023-01-23T16:55:33.767Z,15.77
2023-01-23T16:58:00.488Z,17.95
2023-01-23T17:00:34.475Z,14.57
2023-01-23T17:03:03.387Z,14.98
2023-01-23T17:05:30.139Z,13.32
2023-01-23T17:07:56.854Z,19.88
2023-01-23T17:10:27.760Z,18.13
2023-01-23T17:12:58.828Z,14.02
2023-01-23T17:15:27.836Z,14.52
2023-01-23T17:17:56.617Z,14.55
2023-01-23T17:20:23.403Z,12.80
2023-01-23T17:22:50.108Z,13.38
2023-01-23T17:25:21.367Z,10.77
2023-01-23T17:28:03.680Z,15.27
2023-01-23T17:30:35.266Z,12.90
2023-01-23T17:33:02.988Z,12.48
2023-01-23T17:35:34.131Z,13.65
2023-01-23T17:38:01.346Z,13.75
2023-01-23T17:40:28.568Z,20.50
2023-01-23T17:42:55.463Z,21.13
2023-01-23T17:45:24.419Z,20.48
2023-01-23T17:47:53.443Z,19.17
2023-01-23T17:50:24.481Z,17.33
2023-01-23T17:52:51.851Z,11.15
2023-01-23T17:55:22.699Z,10.27
2023-01-23T17:57:49.506Z,14.32
2023-01-23T18:00:18.621Z,12.05
2023-01-23T18:02:52.231Z,15.68
2023-01-23T18:05:19.236Z,13.43
2023-01-23T18:07:53.726Z,11.25
2023-01-23T18:10:21.840Z,10.68
2023-01-23T18:12:56.991Z,13.93
2023-01-23T18:15:39.640Z,12.82
2023-01-23T18:18:23.270Z,13.30
2023-01-23T18:20:54.630Z,14.57
2023-01-23T18:23:25.732Z,19.13
2023-01-23T18:26:03.764Z,14.57
2023-01-23T18:28:34.674Z,18.27
2023-01-23T18:31:26.655Z,16.30
2023-01-23T18:34:19.838Z,15.32
2023-01-23T18:36:57.181Z,14.18
2023-01-23T18:39:58.899Z,15.82
2023-01-23T18:42:31.613Z,18.95
2023-01-23T18:45:27.560Z,15.20
2023-01-23T18:47:54.952Z,16.27
2023-01-23T18:50:26.945Z,14.40
2023-01-23T18:53:26.500Z,18.42
2023-01-23T18:56:25.022Z,16.05
2023-01-23T18:59:12.918Z,16.40
2023-01-23T19:01:58.577Z,19.70
2023-01-23T19:04:38.428Z,26.38
2023-01-23T19:07:14.124Z,19.52
2023-01-23T19:09:46.304Z,17.77
2023-01-23T19:12:25.015Z,20.30
2023-01-23T19:15:16.938Z,25.20
2023-01-23T19:17:47.873Z,24.67
2023-01-23T19:20:24.792Z,17.42
2023-01-23T19:23:10.612Z,18.50
2023-01-23T19:25:37.481Z,18.40
2023-01-23T19:28:04.506Z,17.25
2023-01-23T19:30:31.753Z,20.23
2023-01-23T19:33:01.594Z,13.60
2023-01-23T19:35:31.656Z,12.02
2023-01-23T19:38:00.275Z,18.27
2023-01-23T19:40:27.066Z,14.85
2023-01-23T19:43:13.316Z,17.42
2023-01-23T19:45:40.646Z,13.32
2023-01-23T19:48:07.391Z,18.30
2023-01-23T19:50:34.059Z,12.23
2023-01-23T19:53:00.787Z,15.70
2023-01-23T19:55:29.378Z,14.38
2023-01-23T19:57:59.019Z,24.98
2023-01-23T20:00:31.090Z,22.67
2023-01-23T20:02:58.071Z,19.38
2023-01-23T20:05:27.487Z,22.27
2023-01-23T20:07:54.226Z,19.25
2023-01-23T20:10:21.394Z,25.88
2023-01-23T20:12:56.572Z,21.17
2023-01-23T20:15:24.496Z,24.20
2023-01-23T20:17:53.984Z,30.35
2023-01-23T20:20:22.276Z,19.48
2023-01-23T20:22:49.168Z,23.42
2023-01-23T20:25:16.473Z,24.45
2023-01-23T20:27:43.423Z,22.50
2023-01-23T20:30:19.867Z,23.15
2023-01-23T20:32:46.927Z,26.33
2023-01-23T20:35:13.898Z,26.10
2023-01-23T20:37:40.895Z,20.23
2023-01-23T20:40:11.688Z,26.38
2023-01-23T20:42:39.107Z,19.88
2023-01-23T20:45:06.897Z,16.40
2023-01-23T20:47:35.969Z,18.70
2023-01-23T20:50:02.909Z,19.27
2023-01-23T20:52:48.225Z,34.50
2023-01-23T20:55:15.017Z,16.85
2023-01-23T20:58:00.216Z,22.80
2023-01-23T21:00:32.323Z,20.20
2023-01-23T21:02:59.148Z,20.48
2023-01-23T21:05:25.850Z,29.55
2023-01-23T21:07:52.695Z,26.38
2023-01-23T21:10:19.481Z,28.33
2023-01-23T21:12:46.157Z,41.15
2023-01-23T21:15:12.979Z,40.25
2023-01-23T21:17:39.708Z,28.80
2023-01-23T21:20:07.109Z,30.52
2023-01-23T21:22:33.787Z,20.38
2023-01-23T21:25:00.561Z,27.10
2023-01-23T21:27:27.357Z,21.10
2023-01-23T21:29:54.196Z,18.55
2023-01-23T21:32:21.373Z,16.40
2023-01-23T21:34:48.146Z,18.52
2023-01-23T21:37:15.085Z,13.38
2023-01-23T21:39:41.760Z,15.75
2023-01-23T21:42:08.491Z,19.27
2023-01-23T21:44:35.881Z,20.63
2023-01-23T21:47:02.831Z,17.30
2023-01-23T21:49:31.265Z,13.80
2023-01-23T21:51:58.495Z,17.77
2023-01-23T21:54:25.276Z,22.75
2023-01-23T21:56:52.005Z,19.55
2023-01-23T21:59:18.902Z,20.42
2023-01-23T22:01:46.768Z,22.38
2023-01-23T22:04:15.505Z,18.38
2023-01-23T22:06:43.347Z,18.63
2023-01-23T22:09:10.540Z,17.92
2023-01-23T22:11:37.396Z,19.52
2023-01-23T22:14:06.688Z,19.50
2023-01-23T22:16:47.367Z,22.23
2023-01-23T22:22:13.364Z,22.40
2023-01-23T22:24:40.016Z,17.67
2023-01-23T22:27:06.748Z,24.45
2023-01-23T22:29:35.851Z,26.27
2023-01-23T22:32:02.803Z,18.73
2023-01-23T22:34:32.274Z,20.42
2023-01-23T22:36:58.945Z,25.33
2023-01-23T22:39:28.704Z,27.83
2023-01-23T22:41:55.519Z,23.17
2023-01-23T22:44:24.477Z,22.40
2023-01-23T22:46:51.676Z,17.17
2023-01-23T22:49:18.514Z,16.55
2023-01-23T22:51:47.616Z,17.75
2023-01-23T22:54:14.344Z,17.95
2023-01-23T22:56:41.152Z,20.08
2023-01-23T22:59:08.524Z,23.33
2023-01-23T23:01:38.463Z,24.30
2023-01-23T23:04:05.299Z,19.20
2023-01-23T23:06:32.114Z,20.38
2023-01-23T23:08:58.808Z,19.42
2023-01-23T23:11:26.957Z,22.67
2023-01-23T23:13:53.916Z,22.05
2023-01-23T23:16:25.417Z,25.92
2023-01-23T23:18:53.774Z,24.75
2023-01-23T23:21:22.760Z,22.40
2023-01-23T23:23:50.005Z,25.38
2023-01-23T23:26:16.714Z,19.77
2023-01-23T23:28:43.630Z,20.90
2023-01-23T23:31:13.283Z,26.17
2023-01-23T23:33:40.154Z,26.83
2023-01-23T23:36:07.351Z,21.30
2023-01-23T23:38:34.288Z,22.15
2023-01-23T23:41:06.032Z,24.13
2023-01-23T23:43:32.804Z,21.70
2023-01-23T23:46:01.021Z,19.05
2023-01-23T23:48:28.428Z,19.55
2023-01-23T23:50:55.301Z,21.13
2023-01-23T23:53:22.314Z,18.95
2023-01-23T23:55:49.174Z,18.42
2023-01-23T23:58:16.018Z,19.17
